sensor_id;sensor_type;location;lat;lon;timestamp;P1;durP1;ratioP1;P2;durP2;ratioP2
56373;SDS011;58212;47.034;7.376;2024-01-30T00:00:14;9.20;;;6.43;;
56373;SDS011;58212;47.034;7.376;2024-01-30T00:02:41;8.20;;;6.47;;
56373;SDS011;58212;47.034;7.376;2024-01-30T00:05:10;7.45;;;6.35;;
56373;SDS011;58212;47.034;7.376;2024-01-30T00:07:37;8.00;;;6.55;;
56373;SDS011;58212;47.034;7.376;2024-01-30T00:10:04;7.40;;;5.72;;
56373;SDS011;58212;47.034;7.376;2024-01-30T00:12:33;9.23;;;7.13;;
56373;SDS011;58212;47.034;7.376;2024-01-30T00:15:01;7.68;;;6.30;;
56373;SDS011;58212;47.034;7.376;2024-01-30T00:17:29;6.97;;;6.28;;
56373;SDS011;58212;47.034;7.376;2024-01-30T00:19:56;9.88;;;7.25;;
56373;SDS011;58212;47.034;7.376;2024-01-30T00:22:23;9.10;;;6.50;;
56373;SDS011;58212;47.034;7.376;2024-01-30T00:24:50;8.73;;;6.05;;
56373;SDS011;58212;47.034;7.376;2024-01-30T00:27:16;10.68;;;6.68;;
56373;SDS011;58212;47.034;7.376;2024-01-30T00:29:43;8.85;;;6.90;;
56373;SDS011;58212;47.034;7.376;2024-01-30T00:32:12;7.70;;;6.75;;
56373;SDS011;58212;47.034;7.376;2024-01-30T00:34:39;9.75;;;7.13;;
56373;SDS011;58212;47.034;7.376;2024-01-30T00:37:06;9.02;;;6.88;;
56373;SDS011;58212;47.034;7.376;2024-01-30T00:39:34;10.05;;;6.78;;
56373;SDS011;58212;47.034;7.376;2024-01-30T00:42:01;10.02;;;7.15;;
56373;SDS011;58212;47.034;7.376;2024-01-30T00:44:29;9.57;;;6.85;;
56373;SDS011;58212;47.034;7.376;2024-01-30T00:46:57;8.07;;;6.72;;
56373;SDS011;58212;47.034;7.376;2024-01-30T00:49:25;7.65;;;6.80;;
56373;SDS011;58212;47.034;7.376;2024-01-30T00:51:52;8.70;;;7.07;;
56373;SDS011;58212;47.034;7.376;2024-01-30T00:54:19;9.63;;;7.32;;
56373;SDS011;58212;47.034;7.376;2024-01-30T00:56:46;8.10;;;6.57;;
56373;SDS011;58212;47.034;7.376;2024-01-30T00:59:13;10.95;;;6.80;;
56373;SDS011;58212;47.034;7.376;2024-01-30T01:01:40;9.93;;;6.82;;
56373;SDS011;58212;47.034;7.376;2024-01-30T01:04:07;11.10;;;7.30;;
56373;SDS011;58212;47.034;7.376;2024-01-30T01:06:38;8.95;;;7.18;;
56373;SDS011;58212;47.034;7.376;2024-01-30T01:09:07;8.55;;;7.35;;
56373;SDS011;58212;47.034;7.376;2024-01-30T01:11:35;10.20;;;8.00;;
56373;SDS011;58212;47.034;7.376;2024-01-30T01:14:03;11.02;;;8.20;;
56373;SDS011;58212;47.034;7.376;2024-01-30T01:16:30;9.65;;;7.40;;
56373;SDS011;58212;47.034;7.376;2024-01-30T01:18:56;10.73;;;8.30;;
56373;SDS011;58212;47.034;7.376;2024-01-30T01:21:24;10.80;;;7.90;;
56373;SDS011;58212;47.034;7.376;2024-01-30T01:23:52;12.23;;;8.95;;
56373;SDS011;58212;47.034;7.376;2024-01-30T01:26:19;12.10;;;8.65;;
56373;SDS011;58212;47.034;7.376;2024-01-30T01:28:46;9.50;;;7.82;;
56373;SDS011;58212;47.034;7.376;2024-01-30T01:31:13;11.30;;;8.32;;
56373;SDS011;58212;47.034;7.376;2024-01-30T01:33:40;11.05;;;8.55;;
56373;SDS011;58212;47.034;7.376;2024-01-30T01:36:07;10.82;;;8.20;;
56373;SDS011;58212;47.034;7.376;2024-01-30T01:38:33;11.85;;;9.15;;
56373;SDS011;58212;47.034;7.376;2024-01-30T01:41:02;9.85;;;7.70;;
56373;SDS011;58212;47.034;7.376;2024-01-30T01:43:28;13.77;;;8.90;;
56373;SDS011;58212;47.034;7.376;2024-01-30T01:45:55;13.75;;;8.73;;
56373;SDS011;58212;47.034;7.376;2024-01-30T01:48:22;9.98;;;8.23;;
56373;SDS011;58212;47.034;7.376;2024-01-30T01:50:49;8.65;;;7.70;;
56373;SDS011;58212;47.034;7.376;2024-01-30T01:53:16;11.15;;;8.35;;
56373;SDS011;58212;47.034;7.376;2024-01-30T01:55:43;8.50;;;7.65;;
56373;SDS011;58212;47.034;7.376;2024-01-30T01:58:13;10.18;;;7.30;;
56373;SDS011;58212;47.034;7.376;2024-01-30T02:00:42;10.35;;;7.72;;
56373;SDS011;58212;47.034;7.376;2024-01-30T02:03:09;12.23;;;7.70;;
56373;SDS011;58212;47.034;7.376;2024-01-30T02:05:37;12.18;;;7.68;;
56373;SDS011;58212;47.034;7.376;2024-01-30T02:08:05;9.55;;;7.40;;
56373;SDS011;58212;47.034;7.376;2024-01-30T02:10:32;8.75;;;7.13;;
56373;SDS011;58212;47.034;7.376;2024-01-30T02:12:59;9.15;;;7.30;;
56373;SDS011;58212;47.034;7.376;2024-01-30T02:15:28;8.98;;;7.10;;
56373;SDS011;58212;47.034;7.376;2024-01-30T02:17:55;8.15;;;6.03;;
56373;SDS011;58212;47.034;7.376;2024-01-30T02:20:21;7.28;;;5.75;;
56373;SDS011;58212;47.034;7.376;2024-01-30T02:22:52;8.75;;;5.43;;
56373;SDS011;58212;47.034;7.376;2024-01-30T02:25:29;7.50;;;5.70;;
56373;SDS011;58212;47.034;7.376;2024-01-30T02:27:56;5.47;;;4.97;;
56373;SDS011;58212;47.034;7.376;2024-01-30T02:30:23;10.32;;;8.07;;
56373;SDS011;58212;47.034;7.376;2024-01-30T02:32:50;11.13;;;8.25;;
56373;SDS011;58212;47.034;7.376;2024-01-30T02:35:18;9.77;;;8.65;;
56373;SDS011;58212;47.034;7.376;2024-01-30T02:37:45;6.20;;;5.60;;
56373;SDS011;58212;47.034;7.376;2024-01-30T02:40:13;7.22;;;4.70;;
56373;SDS011;58212;47.034;7.376;2024-01-30T02:42:40;6.35;;;5.03;;
56373;SDS011;58212;47.034;7.376;2024-01-30T02:45:08;6.15;;;4.35;;
56373;SDS011;58212;47.034;7.376;2024-01-30T02:47:36;5.95;;;4.30;;
56373;SDS011;58212;47.034;7.376;2024-01-30T02:50:03;5.15;;;4.18;;
56373;SDS011;58212;47.034;7.376;2024-01-30T02:52:30;5.82;;;4.75;;
56373;SDS011;58212;47.034;7.376;2024-01-30T02:54:57;6.18;;;4.63;;
56373;SDS011;58212;47.034;7.376;2024-01-30T02:57:25;5.25;;;4.13;;
56373;SDS011;58212;47.034;7.376;2024-01-30T02:59:52;5.85;;;4.10;;
56373;SDS011;58212;47.034;7.376;2024-01-30T03:02:20;4.95;;;4.22;;
56373;SDS011;58212;47.034;7.376;2024-01-30T03:04:47;5.43;;;3.58;;
56373;SDS011;58212;47.034;7.376;2024-01-30T03:07:14;5.28;;;4.18;;
56373;SDS011;58212;47.034;7.376;2024-01-30T03:09:41;4.72;;;3.95;;
56373;SDS011;58212;47.034;7.376;2024-01-30T03:12:08;5.10;;;3.97;;
56373;SDS011;58212;47.034;7.376;2024-01-30T03:14:37;5.30;;;3.90;;
56373;SDS011;58212;47.034;7.376;2024-01-30T03:17:03;6.65;;;4.35;;
56373;SDS011;58212;47.034;7.376;2024-01-30T03:19:30;5.32;;;4.38;;
56373;SDS011;58212;47.034;7.376;2024-01-30T03:21:58;5.13;;;4.63;;
56373;SDS011;58212;47.034;7.376;2024-01-30T03:24:24;5.68;;;4.60;;
56373;SDS011;58212;47.034;7.376;2024-01-30T03:26:51;6.13;;;4.82;;
56373;SDS011;58212;47.034;7.376;2024-01-30T03:29:18;7.82;;;5.05;;
56373;SDS011;58212;47.034;7.376;2024-01-30T03:31:46;6.22;;;5.30;;
56373;SDS011;58212;47.034;7.376;2024-01-30T03:34:13;6.75;;;5.28;;
56373;SDS011;58212;47.034;7.376;2024-01-30T03:36:40;7.47;;;5.50;;
56373;SDS011;58212;47.034;7.376;2024-01-30T03:39:06;6.38;;;5.50;;
56373;SDS011;58212;47.034;7.376;2024-01-30T03:41:34;6.63;;;5.30;;
56373;SDS011;58212;47.034;7.376;2024-01-30T03:44:01;8.32;;;5.55;;
56373;SDS011;58212;47.034;7.376;2024-01-30T03:46:30;8.20;;;5.53;;
56373;SDS011;58212;47.034;7.376;2024-01-30T03:48:58;6.00;;;5.00;;
56373;SDS011;58212;47.034;7.376;2024-01-30T03:51:26;8.80;;;5.40;;
56373;SDS011;58212;47.034;7.376;2024-01-30T03:53:53;6.15;;;4.85;;
56373;SDS011;58212;47.034;7.376;2024-01-30T03:56:20;6.75;;;4.85;;
56373;SDS011;58212;47.034;7.376;2024-01-30T03:58:47;5.60;;;4.65;;
56373;SDS011;58212;47.034;7.376;2024-01-30T04:01:14;5.30;;;4.72;;
56373;SDS011;58212;47.034;7.376;2024-01-30T04:03:41;5.63;;;4.78;;
56373;SDS011;58212;47.034;7.376;2024-01-30T04:06:10;6.03;;;5.15;;
56373;SDS011;58212;47.034;7.376;2024-01-30T04:08:37;5.95;;;4.63;;
56373;SDS011;58212;47.034;7.376;2024-01-30T04:11:04;4.50;;;3.92;;
56373;SDS011;58212;47.034;7.376;2024-01-30T04:13:31;6.55;;;4.40;;
56373;SDS011;58212;47.034;7.376;2024-01-30T04:15:58;6.93;;;4.38;;
56373;SDS011;58212;47.034;7.376;2024-01-30T04:18:26;6.00;;;4.25;;
56373;SDS011;58212;47.034;7.376;2024-01-30T04:20:53;7.18;;;4.07;;
56373;SDS011;58212;47.034;7.376;2024-01-30T04:23:22;4.78;;;4.30;;
56373;SDS011;58212;47.034;7.376;2024-01-30T04:25:48;4.90;;;3.58;;
56373;SDS011;58212;47.034;7.376;2024-01-30T04:28:16;4.63;;;4.13;;
56373;SDS011;58212;47.034;7.376;2024-01-30T04:30:43;6.15;;;4.97;;
56373;SDS011;58212;47.034;7.376;2024-01-30T04:33:10;6.00;;;4.80;;
56373;SDS011;58212;47.034;7.376;2024-01-30T04:35:38;5.90;;;4.20;;
56373;SDS011;58212;47.034;7.376;2024-01-30T04:38:05;6.45;;;4.15;;
56373;SDS011;58212;47.034;7.376;2024-01-30T04:40:33;5.53;;;4.10;;
56373;SDS011;58212;47.034;7.376;2024-01-30T04:43:00;5.25;;;4.05;;
56373;SDS011;58212;47.034;7.376;2024-01-30T04:45:27;5.32;;;3.67;;
56373;SDS011;58212;47.034;7.376;2024-01-30T04:47:54;4.50;;;3.80;;
56373;SDS011;58212;47.034;7.376;2024-01-30T04:50:21;4.45;;;4.05;;
56373;SDS011;58212;47.034;7.376;2024-01-30T04:52:47;5.22;;;4.00;;
56373;SDS011;58212;47.034;7.376;2024-01-30T04:55:14;7.00;;;3.83;;
56373;SDS011;58212;47.034;7.376;2024-01-30T04:57:42;4.13;;;3.72;;
56373;SDS011;58212;47.034;7.376;2024-01-30T05:00:10;5.07;;;4.35;;
56373;SDS011;58212;47.034;7.376;2024-01-30T05:03:02;4.53;;;3.88;;
56373;SDS011;58212;47.034;7.376;2024-01-30T05:05:29;5.85;;;4.22;;
56373;SDS011;58212;47.034;7.376;2024-01-30T05:07:56;5.40;;;4.45;;
56373;SDS011;58212;47.034;7.376;2024-01-30T05:10:23;25.02;;;22.60;;
56373;SDS011;58212;47.034;7.376;2024-01-30T05:12:51;6.93;;;5.97;;
56373;SDS011;58212;47.034;7.376;2024-01-30T05:15:18;6.70;;;5.25;;
56373;SDS011;58212;47.034;7.376;2024-01-30T05:17:46;6.25;;;5.25;;
56373;SDS011;58212;47.034;7.376;2024-01-30T05:20:13;6.57;;;5.45;;
56373;SDS011;58212;47.034;7.376;2024-01-30T05:22:41;8.02;;;6.72;;
56373;SDS011;58212;47.034;7.376;2024-01-30T05:25:10;6.88;;;6.18;;
56373;SDS011;58212;47.034;7.376;2024-01-30T05:27:37;6.40;;;5.57;;
56373;SDS011;58212;47.034;7.376;2024-01-30T05:30:06;5.53;;;5.03;;
56373;SDS011;58212;47.034;7.376;2024-01-30T05:32:59;7.75;;;5.35;;
56373;SDS011;58212;47.034;7.376;2024-01-30T05:35:26;6.25;;;5.15;;
56373;SDS011;58212;47.034;7.376;2024-01-30T05:37:53;6.75;;;6.07;;
56373;SDS011;58212;47.034;7.376;2024-01-30T05:40:20;6.82;;;5.55;;
56373;SDS011;58212;47.034;7.376;2024-01-30T05:42:46;7.28;;;5.82;;
56373;SDS011;58212;47.034;7.376;2024-01-30T05:45:15;7.38;;;6.20;;
56373;SDS011;58212;47.034;7.376;2024-01-30T05:47:42;7.20;;;6.50;;
56373;SDS011;58212;47.034;7.376;2024-01-30T05:50:09;6.95;;;6.18;;
56373;SDS011;58212;47.034;7.376;2024-01-30T05:52:36;6.22;;;5.57;;
56373;SDS011;58212;47.034;7.376;2024-01-30T05:55:03;9.50;;;8.50;;
56373;SDS011;58212;47.034;7.376;2024-01-30T05:57:30;9.07;;;8.05;;
56373;SDS011;58212;47.034;7.376;2024-01-30T05:59:57;7.70;;;6.30;;
56373;SDS011;58212;47.034;7.376;2024-01-30T06:02:31;7.82;;;5.97;;
56373;SDS011;58212;47.034;7.376;2024-01-30T06:04:58;6.07;;;4.65;;
56373;SDS011;58212;47.034;7.376;2024-01-30T06:07:25;6.13;;;4.85;;
56373;SDS011;58212;47.034;7.376;2024-01-30T06:09:52;6.95;;;4.68;;
56373;SDS011;58212;47.034;7.376;2024-01-30T06:12:19;5.20;;;4.47;;
56373;SDS011;58212;47.034;7.376;2024-01-30T06:14:46;7.50;;;4.32;;
56373;SDS011;58212;47.034;7.376;2024-01-30T06:17:13;8.13;;;4.82;;
56373;SDS011;58212;47.034;7.376;2024-01-30T06:19:41;5.35;;;4.80;;
56373;SDS011;58212;47.034;7.376;2024-01-30T06:22:08;7.70;;;5.40;;
56373;SDS011;58212;47.034;7.376;2024-01-30T06:24:34;7.22;;;4.65;;
56373;SDS011;58212;47.034;7.376;2024-01-30T06:27:01;6.50;;;5.35;;
56373;SDS011;58212;47.034;7.376;2024-01-30T06:29:28;6.15;;;4.80;;
56373;SDS011;58212;47.034;7.376;2024-01-30T06:31:55;5.90;;;4.97;;
56373;SDS011;58212;47.034;7.376;2024-01-30T06:34:22;6.20;;;5.30;;
56373;SDS011;58212;47.034;7.376;2024-01-30T06:36:50;5.47;;;4.53;;
56373;SDS011;58212;47.034;7.376;2024-01-30T06:39:17;5.00;;;4.45;;
56373;SDS011;58212;47.034;7.376;2024-01-30T06:41:44;6.35;;;4.88;;
56373;SDS011;58212;47.034;7.376;2024-01-30T06:44:12;10.85;;;8.45;;
56373;SDS011;58212;47.034;7.376;2024-01-30T06:46:38;9.15;;;7.05;;
56373;SDS011;58212;47.034;7.376;2024-01-30T06:49:05;8.63;;;7.70;;
56373;SDS011;58212;47.034;7.376;2024-01-30T06:51:32;9.85;;;6.97;;
56373;SDS011;58212;47.034;7.376;2024-01-30T06:54:00;10.25;;;7.95;;
56373;SDS011;58212;47.034;7.376;2024-01-30T06:56:27;12.40;;;7.63;;
56373;SDS011;58212;47.034;7.376;2024-01-30T06:58:54;8.60;;;7.00;;
56373;SDS011;58212;47.034;7.376;2024-01-30T07:01:21;8.73;;;6.88;;
56373;SDS011;58212;47.034;7.376;2024-01-30T07:03:54;10.65;;;6.53;;
56373;SDS011;58212;47.034;7.376;2024-01-30T07:06:21;9.90;;;8.10;;
56373;SDS011;58212;47.034;7.376;2024-01-30T07:08:48;8.75;;;7.18;;
56373;SDS011;58212;47.034;7.376;2024-01-30T07:11:19;10.77;;;8.93;;
56373;SDS011;58212;47.034;7.376;2024-01-30T07:13:47;10.75;;;6.93;;
56373;SDS011;58212;47.034;7.376;2024-01-30T07:16:40;7.65;;;6.63;;
56373;SDS011;58212;47.034;7.376;2024-01-30T07:19:07;9.65;;;6.78;;
56373;SDS011;58212;47.034;7.376;2024-01-30T07:21:34;7.82;;;7.00;;
56373;SDS011;58212;47.034;7.376;2024-01-30T07:24:01;9.90;;;6.15;;
56373;SDS011;58212;47.034;7.376;2024-01-30T07:26:29;7.30;;;6.22;;
56373;SDS011;58212;47.034;7.376;2024-01-30T07:28:56;7.05;;;5.45;;
56373;SDS011;58212;47.034;7.376;2024-01-30T07:31:25;7.15;;;5.75;;
56373;SDS011;58212;47.034;7.376;2024-01-30T07:34:01;8.57;;;6.20;;
56373;SDS011;58212;47.034;7.376;2024-01-30T07:36:28;7.75;;;5.95;;
56373;SDS011;58212;47.034;7.376;2024-01-30T07:38:55;6.70;;;6.00;;
56373;SDS011;58212;47.034;7.376;2024-01-30T07:41:22;9.02;;;6.53;;
56373;SDS011;58212;47.034;7.376;2024-01-30T07:43:51;7.18;;;5.70;;
56373;SDS011;58212;47.034;7.376;2024-01-30T07:46:18;7.20;;;6.00;;
56373;SDS011;58212;47.034;7.376;2024-01-30T07:48:45;7.32;;;5.75;;
56373;SDS011;58212;47.034;7.376;2024-01-30T07:51:12;8.80;;;6.50;;
56373;SDS011;58212;47.034;7.376;2024-01-30T07:53:39;10.18;;;7.63;;
56373;SDS011;58212;47.034;7.376;2024-01-30T07:56:19;8.30;;;6.40;;
56373;SDS011;58212;47.034;7.376;2024-01-30T07:58:46;6.07;;;5.43;;
56373;SDS011;58212;47.034;7.376;2024-01-30T08:01:14;7.55;;;5.72;;
56373;SDS011;58212;47.034;7.376;2024-01-30T08:03:41;7.28;;;6.20;;
56373;SDS011;58212;47.034;7.376;2024-01-30T08:06:07;11.43;;;9.27;;
56373;SDS011;58212;47.034;7.376;2024-01-30T08:08:34;7.53;;;5.93;;
56373;SDS011;58212;47.034;7.376;2024-01-30T08:11:03;8.05;;;5.78;;
56373;SDS011;58212;47.034;7.376;2024-01-30T08:13:30;6.88;;;5.10;;
56373;SDS011;58212;47.034;7.376;2024-01-30T08:15:56;7.03;;;5.03;;
56373;SDS011;58212;47.034;7.376;2024-01-30T08:18:24;11.15;;;7.55;;
56373;SDS011;58212;47.034;7.376;2024-01-30T08:20:51;12.25;;;8.63;;
56373;SDS011;58212;47.034;7.376;2024-01-30T08:23:18;11.98;;;8.25;;
56373;SDS011;58212;47.034;7.376;2024-01-30T08:25:45;9.73;;;8.52;;
56373;SDS011;58212;47.034;7.376;2024-01-30T08:28:11;11.45;;;8.88;;
56373;SDS011;58212;47.034;7.376;2024-01-30T08:30:38;9.38;;;8.25;;
56373;SDS011;58212;47.034;7.376;2024-01-30T08:33:05;14.85;;;9.60;;
56373;SDS011;58212;47.034;7.376;2024-01-30T08:35:33;11.57;;;9.20;;
56373;SDS011;58212;47.034;7.376;2024-01-30T08:38:00;11.30;;;8.88;;
56373;SDS011;58212;47.034;7.376;2024-01-30T08:40:29;11.02;;;7.82;;
56373;SDS011;58212;47.034;7.376;2024-01-30T08:42:56;8.93;;;7.43;;
56373;SDS011;58212;47.034;7.376;2024-01-30T08:45:22;11.20;;;8.57;;
56373;SDS011;58212;47.034;7.376;2024-01-30T08:47:49;9.65;;;8.65;;
56373;SDS011;58212;47.034;7.376;2024-01-30T08:50:16;13.10;;;8.82;;
56373;SDS011;58212;47.034;7.376;2024-01-30T08:52:44;12.70;;;9.90;;
56373;SDS011;58212;47.034;7.376;2024-01-30T08:55:11;12.88;;;10.23;;
56373;SDS011;58212;47.034;7.376;2024-01-30T08:57:37;12.80;;;10.80;;
56373;SDS011;58212;47.034;7.376;2024-01-30T09:00:05;13.35;;;11.48;;
56373;SDS011;58212;47.034;7.376;2024-01-30T09:02:35;12.95;;;10.85;;
56373;SDS011;58212;47.034;7.376;2024-01-30T09:05:02;15.10;;;11.40;;
56373;SDS011;58212;47.034;7.376;2024-01-30T09:07:29;13.70;;;11.45;;
56373;SDS011;58212;47.034;7.376;2024-01-30T09:09:57;13.95;;;11.98;;
56373;SDS011;58212;47.034;7.376;2024-01-30T09:12:24;14.43;;;11.95;;
56373;SDS011;58212;47.034;7.376;2024-01-30T09:14:50;14.70;;;12.73;;
56373;SDS011;58212;47.034;7.376;2024-01-30T09:17:16;13.38;;;11.32;;
56373;SDS011;58212;47.034;7.376;2024-01-30T09:19:43;15.20;;;12.63;;
56373;SDS011;58212;47.034;7.376;2024-01-30T09:22:10;16.67;;;13.88;;
56373;SDS011;58212;47.034;7.376;2024-01-30T09:24:37;18.08;;;13.77;;
56373;SDS011;58212;47.034;7.376;2024-01-30T09:27:05;16.20;;;13.80;;
56373;SDS011;58212;47.034;7.376;2024-01-30T09:29:32;15.65;;;13.82;;
56373;SDS011;58212;47.034;7.376;2024-01-30T09:31:59;16.73;;;12.80;;
56373;SDS011;58212;47.034;7.376;2024-01-30T09:34:26;15.13;;;12.55;;
56373;SDS011;58212;47.034;7.376;2024-01-30T09:36:53;13.52;;;11.15;;
56373;SDS011;58212;47.034;7.376;2024-01-30T09:39:19;15.35;;;11.00;;
56373;SDS011;58212;47.034;7.376;2024-01-30T09:41:48;16.42;;;11.52;;
56373;SDS011;58212;47.034;7.376;2024-01-30T09:44:17;19.15;;;13.57;;
56373;SDS011;58212;47.034;7.376;2024-01-30T09:46:47;23.92;;;16.65;;
56373;SDS011;58212;47.034;7.376;2024-01-30T09:49:14;22.45;;;16.50;;
56373;SDS011;58212;47.034;7.376;2024-01-30T09:51:42;20.50;;;15.30;;
56373;SDS011;58212;47.034;7.376;2024-01-30T09:54:09;25.23;;;16.45;;
56373;SDS011;58212;47.034;7.376;2024-01-30T09:56:37;24.52;;;15.25;;
56373;SDS011;58212;47.034;7.376;2024-01-30T09:59:03;20.80;;;14.65;;
56373;SDS011;58212;47.034;7.376;2024-01-30T10:01:32;17.45;;;13.82;;
56373;SDS011;58212;47.034;7.376;2024-01-30T10:04:00;14.32;;;12.88;;
56373;SDS011;58212;47.034;7.376;2024-01-30T10:06:27;17.98;;;13.73;;
56373;SDS011;58212;47.034;7.376;2024-01-30T10:08:54;16.48;;;13.38;;
56373;SDS011;58212;47.034;7.376;2024-01-30T10:11:21;16.05;;;12.55;;
56373;SDS011;58212;47.034;7.376;2024-01-30T10:13:48;13.98;;;12.57;;
56373;SDS011;58212;47.034;7.376;2024-01-30T10:16:15;14.63;;;13.13;;
56373;SDS011;58212;47.034;7.376;2024-01-30T10:18:43;14.27;;;12.77;;
56373;SDS011;58212;47.034;7.376;2024-01-30T10:21:11;15.25;;;12.88;;
56373;SDS011;58212;47.034;7.376;2024-01-30T10:23:37;16.77;;;14.07;;
56373;SDS011;58212;47.034;7.376;2024-01-30T10:26:04;15.50;;;13.90;;
56373;SDS011;58212;47.034;7.376;2024-01-30T10:28:33;15.32;;;13.73;;
56373;SDS011;58212;47.034;7.376;2024-01-30T10:31:00;15.85;;;13.35;;
56373;SDS011;58212;47.034;7.376;2024-01-30T10:33:29;15.35;;;13.05;;
56373;SDS011;58212;47.034;7.376;2024-01-30T10:35:59;14.18;;;12.65;;
56373;SDS011;58212;47.034;7.376;2024-01-30T10:38:28;18.00;;;13.68;;
56373;SDS011;58212;47.034;7.376;2024-01-30T10:40:56;12.98;;;11.40;;
56373;SDS011;58212;47.034;7.376;2024-01-30T10:43:24;13.80;;;11.30;;
56373;SDS011;58212;47.034;7.376;2024-01-30T10:45:55;14.95;;;12.98;;
56373;SDS011;58212;47.034;7.376;2024-01-30T10:48:29;14.43;;;12.75;;
56373;SDS011;58212;47.034;7.376;2024-01-30T10:51:00;16.20;;;12.95;;
56373;SDS011;58212;47.034;7.376;2024-01-30T10:53:30;15.10;;;12.95;;
56373;SDS011;58212;47.034;7.376;2024-01-30T10:55:57;14.50;;;13.02;;
56373;SDS011;58212;47.034;7.376;2024-01-30T10:58:25;14.48;;;12.98;;
56373;SDS011;58212;47.034;7.376;2024-01-30T11:00:53;15.02;;;13.43;;
56373;SDS011;58212;47.034;7.376;2024-01-30T11:03:21;19.73;;;14.60;;
56373;SDS011;58212;47.034;7.376;2024-01-30T11:05:49;15.25;;;13.65;;
56373;SDS011;58212;47.034;7.376;2024-01-30T11:08:23;21.23;;;16.10;;
56373;SDS011;58212;47.034;7.376;2024-01-30T11:10:54;17.88;;;15.18;;
56373;SDS011;58212;47.034;7.376;2024-01-30T11:13:23;16.83;;;15.13;;
56373;SDS011;58212;47.034;7.376;2024-01-30T11:15:53;16.75;;;14.50;;
56373;SDS011;58212;47.034;7.376;2024-01-30T11:18:23;18.48;;;14.90;;
56373;SDS011;58212;47.034;7.376;2024-01-30T11:20:50;18.23;;;15.20;;
56373;SDS011;58212;47.034;7.376;2024-01-30T11:23:17;17.52;;;14.25;;
56373;SDS011;58212;47.034;7.376;2024-01-30T11:25:45;16.73;;;13.43;;
56373;SDS011;58212;47.034;7.376;2024-01-30T11:28:14;14.93;;;13.18;;
56373;SDS011;58212;47.034;7.376;2024-01-30T11:30:41;15.15;;;13.55;;
56373;SDS011;58212;47.034;7.376;2024-01-30T11:33:09;16.52;;;14.68;;
56373;SDS011;58212;47.034;7.376;2024-01-30T11:35:37;15.45;;;13.82;;
56373;SDS011;58212;47.034;7.376;2024-01-30T11:38:06;15.75;;;13.40;;
56373;SDS011;58212;47.034;7.376;2024-01-30T11:40:34;14.90;;;13.15;;
56373;SDS011;58212;47.034;7.376;2024-01-30T11:43:03;15.57;;;13.75;;
56373;SDS011;58212;47.034;7.376;2024-01-30T11:45:31;17.67;;;14.68;;
56373;SDS011;58212;47.034;7.376;2024-01-30T11:47:58;18.23;;;15.57;;
56373;SDS011;58212;47.034;7.376;2024-01-30T11:50:28;15.90;;;14.38;;
56373;SDS011;58212;47.034;7.376;2024-01-30T11:52:55;18.13;;;15.40;;
56373;SDS011;58212;47.034;7.376;2024-01-30T11:55:23;16.23;;;14.52;;
56373;SDS011;58212;47.034;7.376;2024-01-30T11:57:50;16.92;;;14.35;;
56373;SDS011;58212;47.034;7.376;2024-01-30T12:00:18;15.65;;;13.82;;
56373;SDS011;58212;47.034;7.376;2024-01-30T12:02:48;14.10;;;12.60;;
56373;SDS011;58212;47.034;7.376;2024-01-30T12:05:16;19.38;;;14.45;;
56373;SDS011;58212;47.034;7.376;2024-01-30T12:07:43;14.73;;;12.90;;
56373;SDS011;58212;47.034;7.376;2024-01-30T12:10:11;13.70;;;12.07;;
56373;SDS011;58212;47.034;7.376;2024-01-30T12:12:39;15.90;;;12.82;;
56373;SDS011;58212;47.034;7.376;2024-01-30T12:15:07;15.82;;;12.35;;
56373;SDS011;58212;47.034;7.376;2024-01-30T12:17:36;15.48;;;12.95;;
56373;SDS011;58212;47.034;7.376;2024-01-30T12:20:03;17.30;;;12.98;;
56373;SDS011;58212;47.034;7.376;2024-01-30T12:22:32;14.65;;;12.88;;
56373;SDS011;58212;47.034;7.376;2024-01-30T12:25:02;22.85;;;12.05;;
56373;SDS011;58212;47.034;7.376;2024-01-30T12:27:29;12.45;;;11.13;;
56373;SDS011;58212;47.034;7.376;2024-01-30T12:29:56;13.82;;;10.82;;
56373;SDS011;58212;47.034;7.376;2024-01-30T12:32:23;15.57;;;10.48;;
56373;SDS011;58212;47.034;7.376;2024-01-30T12:34:54;13.82;;;10.88;;
56373;SDS011;58212;47.034;7.376;2024-01-30T12:37:21;11.80;;;10.60;;
56373;SDS011;58212;47.034;7.376;2024-01-30T12:39:50;15.27;;;11.80;;
56373;SDS011;58212;47.034;7.376;2024-01-30T12:42:18;14.00;;;10.70;;
56373;SDS011;58212;47.034;7.376;2024-01-30T12:44:46;13.27;;;10.38;;
56373;SDS011;58212;47.034;7.376;2024-01-30T12:47:14;14.10;;;10.60;;
56373;SDS011;58212;47.034;7.376;2024-01-30T12:49:42;17.45;;;10.52;;
56373;SDS011;58212;47.034;7.376;2024-01-30T12:52:10;13.30;;;10.98;;
56373;SDS011;58212;47.034;7.376;2024-01-30T12:54:38;13.18;;;10.88;;
56373;SDS011;58212;47.034;7.376;2024-01-30T12:57:04;11.90;;;10.55;;
56373;SDS011;58212;47.034;7.376;2024-01-30T12:59:31;13.15;;;10.73;;
56373;SDS011;58212;47.034;7.376;2024-01-30T13:02:00;13.80;;;11.32;;
56373;SDS011;58212;47.034;7.376;2024-01-30T13:04:28;12.38;;;11.07;;
56373;SDS011;58212;47.034;7.376;2024-01-30T13:06:55;12.77;;;10.73;;
56373;SDS011;58212;47.034;7.376;2024-01-30T13:09:23;12.70;;;11.27;;
56373;SDS011;58212;47.034;7.376;2024-01-30T13:11:50;13.43;;;10.93;;
56373;SDS011;58212;47.034;7.376;2024-01-30T13:14:17;13.85;;;11.38;;
56373;SDS011;58212;47.034;7.376;2024-01-30T13:16:44;15.20;;;11.75;;
56373;SDS011;58212;47.034;7.376;2024-01-30T13:19:11;13.40;;;11.23;;
56373;SDS011;58212;47.034;7.376;2024-01-30T13:21:38;14.10;;;11.48;;
56373;SDS011;58212;47.034;7.376;2024-01-30T13:24:05;17.50;;;13.13;;
56373;SDS011;58212;47.034;7.376;2024-01-30T13:26:34;13.43;;;10.85;;
56373;SDS011;58212;47.034;7.376;2024-01-30T13:29:00;14.38;;;11.32;;
56373;SDS011;58212;47.034;7.376;2024-01-30T13:31:27;15.52;;;12.23;;
56373;SDS011;58212;47.034;7.376;2024-01-30T13:33:54;14.88;;;12.52;;
56373;SDS011;58212;47.034;7.376;2024-01-30T13:36:21;13.38;;;12.02;;
56373;SDS011;58212;47.034;7.376;2024-01-30T13:38:48;15.18;;;12.80;;
56373;SDS011;58212;47.034;7.376;2024-01-30T13:41:15;15.13;;;13.20;;
56373;SDS011;58212;47.034;7.376;2024-01-30T13:43:44;16.60;;;13.07;;
56373;SDS011;58212;47.034;7.376;2024-01-30T13:46:11;15.32;;;13.57;;
56373;SDS011;58212;47.034;7.376;2024-01-30T13:48:37;15.98;;;13.98;;
56373;SDS011;58212;47.034;7.376;2024-01-30T13:51:04;16.38;;;13.88;;
56373;SDS011;58212;47.034;7.376;2024-01-30T13:53:31;16.27;;;13.68;;
56373;SDS011;58212;47.034;7.376;2024-01-30T13:55:58;17.17;;;15.38;;
56373;SDS011;58212;47.034;7.376;2024-01-30T13:58:25;24.52;;;19.95;;
56373;SDS011;58212;47.034;7.376;2024-01-30T14:00:53;20.77;;;15.43;;
56373;SDS011;58212;47.034;7.376;2024-01-30T14:03:20;18.90;;;15.20;;
56373;SDS011;58212;47.034;7.376;2024-01-30T14:05:47;21.52;;;16.67;;
56373;SDS011;58212;47.034;7.376;2024-01-30T14:08:14;23.65;;;17.38;;
56373;SDS011;58212;47.034;7.376;2024-01-30T14:10:41;16.88;;;14.70;;
56373;SDS011;58212;47.034;7.376;2024-01-30T14:13:08;17.30;;;14.85;;
56373;SDS011;58212;47.034;7.376;2024-01-30T14:15:36;23.08;;;16.38;;
56373;SDS011;58212;47.034;7.376;2024-01-30T14:18:05;20.02;;;15.65;;
56373;SDS011;58212;47.034;7.376;2024-01-30T14:20:33;19.45;;;15.85;;
56373;SDS011;58212;47.034;7.376;2024-01-30T14:23:00;18.25;;;15.25;;
56373;SDS011;58212;47.034;7.376;2024-01-30T14:25:27;18.67;;;15.70;;
56373;SDS011;58212;47.034;7.376;2024-01-30T14:27:53;17.45;;;15.18;;
56373;SDS011;58212;47.034;7.376;2024-01-30T14:30:20;20.02;;;15.75;;
56373;SDS011;58212;47.034;7.376;2024-01-30T14:32:47;16.98;;;15.10;;
56373;SDS011;58212;47.034;7.376;2024-01-30T14:35:15;16.65;;;14.63;;
56373;SDS011;58212;47.034;7.376;2024-01-30T14:37:42;18.15;;;15.02;;